createdAt,value
2023-02-07T00:01:14.385Z,49.3
2023-02-07T00:07:25.001Z,21.4
2023-02-07T00:09:31.408Z,40
2023-02-07T00:11:34.896Z,32.1
2023-02-07T00:17:45.714Z,30.9
2023-02-07T00:19:49.270Z,28.1
2023-02-07T00:21:52.794Z,31.4
2023-02-07T00:23:59.142Z,36
2023-02-07T00:26:02.713Z,16.5
2023-02-07T00:28:06.463Z,35.2
2023-02-07T00:30:09.866Z,20.4
2023-02-07T00:32:13.420Z,18.8
2023-02-07T00:34:16.921Z,23.9
2023-02-07T00:36:20.536Z,22.7
2023-02-07T00:38:26.919Z,25.5
2023-02-07T00:40:30.435Z,15.1
2023-02-07T00:42:33.971Z,24.1
2023-02-07T00:43:37.233Z,32.6
2023-02-07T00:45:40.868Z,20.2
2023-02-07T00:47:44.282Z,15.2
2023-02-07T00:49:47.833Z,35.4
2023-02-07T00:51:54.165Z,26.5
2023-02-07T00:53:57.698Z,14.9
2023-02-07T00:58:04.749Z,32.9
2023-02-07T01:04:15.306Z,22.3
2023-02-07T01:06:21.655Z,20.5
2023-02-07T01:08:25.274Z,25
2023-02-07T01:10:28.805Z,19.6
2023-02-07T01:12:32.297Z,19.5
2023-02-07T01:14:35.847Z,25.4
2023-02-07T01:16:39.446Z,21.5
2023-02-07T01:18:43.049Z,28.6
2023-02-07T01:20:49.534Z,30.8
2023-02-07T01:22:53.026Z,21.8
2023-02-07T01:24:56.635Z,20.5
2023-02-07T01:27:00.169Z,20.6
2023-02-07T01:29:03.769Z,23.1
2023-02-07T01:31:07.613Z,25.4
2023-02-07T01:33:11.006Z,31.4
2023-02-07T01:35:17.443Z,22.1
2023-02-07T01:37:21.034Z,33.1
2023-02-07T01:39:24.557Z,25.4
2023-02-07T01:40:27.840Z,22.5
2023-02-07T01:42:31.430Z,19.6
2023-02-07T01:44:35.017Z,21.5
2023-02-07T01:46:38.684Z,33.4
2023-02-07T01:48:45.527Z,29.5
2023-02-07T01:50:49.138Z,36.3
2023-02-07T01:52:52.743Z,35.8
2023-02-07T01:59:03.533Z,22.4
2023-02-07T02:03:13.684Z,24.3
2023-02-07T02:09:24.505Z,29.9
2023-02-07T02:11:28.120Z,40.7
2023-02-07T02:15:35.385Z,23.7
2023-02-07T02:17:41.849Z,48.5
2023-02-07T02:19:45.437Z,44.1
2023-02-07T02:21:49.081Z,45.6
2023-02-07T02:23:52.668Z,41.3
2023-02-07T02:25:56.261Z,31.3
2023-02-07T02:27:59.872Z,24.1
2023-02-07T02:30:03.386Z,48.5
2023-02-07T02:32:09.911Z,39.6
2023-02-07T02:34:13.500Z,35.2
2023-02-07T02:36:17.142Z,57.7
2023-02-07T02:40:38.545Z,50.8
2023-02-07T02:42:42.330Z,42
2023-02-07T02:44:48.738Z,59.1
2023-02-07T02:48:56.003Z,57.8
2023-02-07T02:50:59.650Z,71.4
2023-02-07T02:59:17.012Z,59.8
2023-02-07T03:05:28.040Z,37.4
2023-02-07T03:07:31.587Z,30.8
2023-02-07T03:11:38.653Z,51.7
2023-02-07T03:13:45.107Z,53
2023-02-07T03:15:48.682Z,64.5
2023-02-07T03:17:52.314Z,30.9
2023-02-07T03:19:55.912Z,39.7
2023-02-07T03:21:59.467Z,57.8
2023-02-07T03:24:03.103Z,38.3
2023-02-07T03:26:06.611Z,31.7
2023-02-07T03:28:13.231Z,43.9
2023-02-07T03:30:16.718Z,51.6
2023-02-07T03:33:23.534Z,65.5
2023-02-07T03:35:27.146Z,64.3
2023-02-07T03:37:30.798Z,44.6
2023-02-07T03:39:34.318Z,37.8
2023-02-07T03:41:40.861Z,40.1
2023-02-07T03:47:51.765Z,31.6
2023-02-07T03:51:59.019Z,43.2
2023-02-07T03:56:09.214Z,59.1
2023-02-07T03:58:12.881Z,46.7
2023-02-07T04:00:16.467Z,32.2
2023-02-07T04:02:20.194Z,35.8
2023-02-07T04:04:23.716Z,37
2023-02-07T04:06:27.316Z,30.7
2023-02-07T04:10:37.509Z,51.8
2023-02-07T04:16:48.226Z,31.1
2023-02-07T04:18:51.858Z,43.5
2023-02-07T04:20:55.488Z,37.1
2023-02-07T04:22:59.068Z,43.1
2023-02-07T04:25:05.510Z,39.4
2023-02-07T04:27:09.027Z,41.2
2023-02-07T04:29:12.659Z,42
2023-02-07T04:38:33.219Z,51.9
2023-02-07T04:42:40.458Z,52.3
2023-02-07T04:46:47.648Z,23.6
2023-02-07T04:48:51.317Z,27.9
2023-02-07T04:53:01.399Z,58.6
2023-02-07T04:55:05.004Z,40.4
2023-02-07T04:57:08.602Z,23.6
2023-02-07T04:59:12.247Z,32.4
2023-02-07T05:01:15.888Z,47.2
2023-02-07T05:03:19.420Z,32.4
2023-02-07T05:05:23.037Z,26.3
2023-02-07T05:07:29.572Z,26.8
2023-02-07T05:09:33.162Z,26.8
2023-02-07T05:11:36.759Z,28.5
2023-02-07T05:13:40.332Z,35
2023-02-07T05:15:43.957Z,40.6
2023-02-07T05:17:47.513Z,27.2
2023-02-07T05:21:57.505Z,47.4
2023-02-07T05:24:01.082Z,27.1
2023-02-07T05:27:07.930Z,25.4
2023-02-07T05:29:11.518Z,28.3
2023-02-07T05:31:15.330Z,32.2
2023-02-07T05:33:18.692Z,34.4
2023-02-07T05:35:25.177Z,28.9
2023-02-07T05:37:28.790Z,35.8
2023-02-07T05:39:32.339Z,35
2023-02-07T05:41:35.910Z,29.9
2023-02-07T05:43:39.474Z,26.5
2023-02-07T05:47:46.563Z,33.4
2023-02-07T05:49:53.059Z,33.7
2023-02-07T05:51:56.595Z,38.3
2023-02-07T05:54:00.178Z,23.4
2023-02-07T05:58:07.267Z,38.6
2023-02-07T06:00:10.829Z,28
2023-02-07T06:04:20.908Z,28.7
2023-02-07T06:08:27.988Z,54.6
2023-02-07T06:18:48.677Z,31.4
2023-02-07T06:25:23.429Z,62.5
2023-02-07T06:27:26.980Z,41.6
2023-02-07T06:29:30.515Z,55.1
2023-02-07T06:31:37.055Z,53.2
2023-02-07T06:33:40.558Z,37.1
2023-02-07T06:37:47.659Z,40.7
2023-02-07T06:39:51.177Z,51.4
2023-02-07T06:43:58.286Z,40.4
2023-02-07T06:48:08.297Z,40
2023-02-07T06:54:18.901Z,45.8
2023-02-07T06:56:22.465Z,40.3
2023-02-07T06:58:25.990Z,41.2
2023-02-07T07:00:32.442Z,37.5
2023-02-07T07:02:36.045Z,26.8
2023-02-07T07:04:39.494Z,34.7
2023-02-07T07:06:43.061Z,41.4
2023-02-07T07:08:46.527Z,38.1
2023-02-07T07:12:53.598Z,38.8
2023-02-07T07:15:00.049Z,39.2
2023-02-07T07:19:07.101Z,43.4
2023-02-07T07:20:10.477Z,36
2023-02-07T07:24:17.425Z,68.9
2023-02-07T07:26:20.940Z,55.2
2023-02-07T07:28:27.422Z,41.1
2023-02-07T07:30:30.948Z,57.1
2023-02-07T07:32:34.695Z,39
2023-02-07T07:34:38.007Z,28.4
2023-02-07T07:36:41.546Z,40.9
2023-02-07T07:40:48.592Z,31.6
2023-02-07T07:45:00.252Z,51.7
2023-02-07T07:49:07.202Z,59.3
2023-02-07T07:59:27.800Z,52.6
2023-02-07T08:03:34.985Z,50.8
2023-02-07T08:05:38.492Z,52.2
2023-02-07T08:13:55.584Z,55.6
2023-02-07T08:15:59.164Z,42.8
2023-02-07T08:17:02.357Z,49
2023-02-07T08:19:05.926Z,50.5
2023-02-07T08:25:19.582Z,85.3
2023-02-07T08:27:23.154Z,80.9
2023-02-07T08:29:26.738Z,51.1
2023-02-07T08:31:30.433Z,53.3
2023-02-07T08:33:33.908Z,89.2
2023-02-07T08:35:37.504Z,34.1
2023-02-07T08:37:41.113Z,61.6
2023-02-07T08:39:47.754Z,61.5
2023-02-07T08:41:51.259Z,60.1
2023-02-07T08:43:54.895Z,60.2
2023-02-07T08:45:58.627Z,76.5
2023-02-07T08:48:02.076Z,71.3
2023-02-07T08:50:05.727Z,68.6
2023-02-07T08:52:09.385Z,64.7
2023-02-07T08:54:16.032Z,75.8
2023-02-07T08:56:19.702Z,70
2023-02-07T08:58:23.397Z,72
2023-02-07T09:00:27.012Z,67.1
2023-02-07T09:02:30.776Z,63.9
2023-02-07T09:04:34.457Z,56.9
2023-02-07T09:06:38.168Z,75.3
2023-02-07T09:08:44.711Z,68.2
2023-02-07T09:10:48.480Z,74.9
2023-02-07T09:12:52.088Z,73.5
2023-02-07T09:15:59.083Z,61
2023-02-07T09:22:13.134Z,84.7
2023-02-07T09:24:16.850Z,69.2
2023-02-07T09:26:20.594Z,67.9
2023-02-07T09:30:28.181Z,55.6
2023-02-07T09:40:49.581Z,52.9
2023-02-07T09:42:53.428Z,53.9
2023-02-07T09:44:57.245Z,45.9
2023-02-07T09:47:00.890Z,45.5
2023-02-07T09:49:04.710Z,54.1
2023-02-07T09:51:11.414Z,42.7
2023-02-07T09:55:19.744Z,55.3
2023-02-07T09:59:27.240Z,61.6
2023-02-07T10:01:31.069Z,46.5
2023-02-07T10:03:34.730Z,55.7
2023-02-07T10:05:41.401Z,43.2
2023-02-07T10:09:48.851Z,48.6
2023-02-07T10:18:32.366Z,42.6
2023-02-07T10:26:47.328Z,37.7
2023-02-07T10:33:01.382Z,24.8
2023-02-07T10:37:08.893Z,27.6
2023-02-07T10:39:12.909Z,26.1
2023-02-07T10:41:16.429Z,34.1
2023-02-07T10:43:20.164Z,30.1
2023-02-07T10:45:23.930Z,20.4
2023-02-07T10:47:30.532Z,18.5
2023-02-07T10:49:34.306Z,19.6
2023-02-07T10:51:38.156Z,28.6
2023-02-07T10:57:54.272Z,17.8
2023-02-07T11:02:00.030Z,17.5
2023-02-07T11:06:07.574Z,18.9
2023-02-07T11:07:10.885Z,13.7
2023-02-07T11:09:14.685Z,18.2
2023-02-07T11:11:18.488Z,20.5
2023-02-07T11:13:22.298Z,19.1
2023-02-07T11:15:28.942Z,18.3
2023-02-07T11:17:32.860Z,19.3
2023-02-07T11:19:36.543Z,15.9
2023-02-07T11:21:40.446Z,13.6
2023-02-07T11:23:44.202Z,17.3
2023-02-07T11:25:48.012Z,12.5
2023-02-07T11:27:51.856Z,14.6
2023-02-07T11:29:58.481Z,24.4
2023-02-07T11:32:02.293Z,11.3
2023-02-07T11:34:06.114Z,12.7
2023-02-07T11:36:09.934Z,10.6
2023-02-07T11:38:13.791Z,12.6
2023-02-07T11:40:17.659Z,13.1
2023-02-07T11:44:29.678Z,11.6
2023-02-07T11:50:39.978Z,15.7
2023-02-07T11:52:43.400Z,11.5
2023-02-07T11:54:47.175Z,8.3
2023-02-07T11:58:57.612Z,13.6
2023-02-07T12:04:08.506Z,7.7
2023-02-07T12:06:12.519Z,11.1
2023-02-07T12:08:16.128Z,10.6
2023-02-07T12:10:19.904Z,10.3
2023-02-07T12:14:30.273Z,14
2023-02-07T12:16:34.089Z,8.5
2023-02-07T12:18:37.807Z,9.1
2023-02-07T12:20:41.606Z,10.9
2023-02-07T12:22:53.253Z,9.8
2023-02-07T12:24:49.079Z,8.6
2023-02-07T12:26:55.678Z,9.3
2023-02-07T12:29:12.413Z,8.8
2023-02-07T12:31:05.089Z,5.2
2023-02-07T12:39:18.215Z,4.5
2023-02-07T12:45:32.318Z,11.9
2023-02-07T12:47:36.147Z,6.5
2023-02-07T12:49:39.902Z,6.1
2023-02-07T12:51:43.660Z,9.9
2023-02-07T12:53:47.422Z,7.8
2023-02-07T12:57:57.828Z,9.2
2023-02-07T13:03:08.582Z,12
2023-02-07T13:05:12.348Z,6.9
2023-02-07T13:07:16.096Z,6.7
2023-02-07T13:09:22.669Z,5.6
2023-02-07T13:11:26.411Z,6.3
2023-02-07T13:13:30.197Z,5.6
2023-02-07T13:15:33.950Z,5
2023-02-07T13:17:37.709Z,6.9
2023-02-07T13:19:41.589Z,5.7
2023-02-07T13:21:45.381Z,3.9
2023-02-07T13:23:51.963Z,3
2023-02-07T13:25:55.746Z,4.3
2023-02-07T13:27:59.539Z,9.2
2023-02-07T13:30:03.314Z,8.6
2023-02-07T13:32:07.113Z,6.7
2023-02-07T13:34:10.884Z,6
2023-02-07T13:46:37.919Z,9.6
2023-02-07T13:52:52.174Z,5.2
2023-02-07T13:56:59.711Z,8.6
2023-02-07T14:01:33.218Z,15.9
2023-02-07T14:03:36.961Z,8.2
2023-02-07T14:05:43.538Z,8.9
2023-02-07T14:07:47.324Z,10.4
2023-02-07T14:13:58.698Z,6
2023-02-07T14:16:02.516Z,8.1
2023-02-07T14:18:06.202Z,10.8
2023-02-07T14:20:12.788Z,8.8
2023-02-07T14:22:16.660Z,8.2
2023-02-07T14:24:20.392Z,11.3
2023-02-07T14:26:24.234Z,9.7
2023-02-07T14:28:27.994Z,10.7
2023-02-07T14:30:31.733Z,11
2023-02-07T14:32:35.481Z,11.4
2023-02-07T14:34:42.064Z,7.8
2023-02-07T14:36:45.834Z,9
2023-02-07T14:38:49.569Z,9.3
2023-02-07T14:45:00.829Z,5.4
2023-02-07T14:47:04.587Z,11.8
2023-02-07T14:49:11.106Z,11.7
2023-02-07T14:54:22.089Z,14.5
2023-02-07T14:56:25.871Z,10.4
2023-02-07T14:58:29.705Z,11
2023-02-07T15:02:40.176Z,12.5
2023-02-07T15:06:47.721Z,6.4
2023-02-07T15:08:51.471Z,5.9
2023-02-07T15:12:58.925Z,7.8
2023-02-07T15:15:02.696Z,9.8
2023-02-07T15:19:13.035Z,8.3
2023-02-07T15:21:16.761Z,6.2
2023-02-07T15:23:20.616Z,10.4
2023-02-07T15:25:24.353Z,9.6
2023-02-07T15:27:28.064Z,14.3
2023-02-07T15:37:49.695Z,11.6
2023-02-07T15:39:53.440Z,9.7
2023-02-07T15:41:57.160Z,11.8
2023-02-07T15:46:07.517Z,9.9
2023-02-07T15:48:11.254Z,12.5
2023-02-07T15:51:18.371Z,7.9
2023-02-07T15:53:22.199Z,9.8
2023-02-07T15:55:25.964Z,11.8
2023-02-07T15:57:29.739Z,8
2023-02-07T15:59:36.280Z,10.7
2023-02-07T16:01:40.077Z,13.3
2023-02-07T16:03:43.762Z,12
2023-02-07T16:05:47.556Z,11.3
2023-02-07T16:07:51.302Z,11.6
2023-02-07T16:09:55.119Z,3.2
2023-02-07T16:11:58.847Z,9.9
2023-02-07T16:14:05.461Z,9.8
2023-02-07T16:16:09.301Z,12.2
2023-02-07T16:18:12.987Z,12.6
2023-02-07T16:20:16.693Z,5.5
2023-02-07T16:22:20.517Z,16.7
2023-02-07T16:24:24.306Z,20.6
2023-02-07T16:26:28.024Z,11.2
2023-02-07T16:30:38.513Z,8.9
2023-02-07T16:32:41.920Z,9.3
2023-02-07T16:34:58.849Z,15.2
2023-02-07T16:36:49.320Z,15.4
2023-02-07T16:38:52.999Z,11.4
2023-02-07T16:40:56.731Z,14.2
2023-02-07T16:43:03.335Z,22
2023-02-07T16:45:07.042Z,8.3
2023-02-07T16:47:10.760Z,8.7
2023-02-07T16:50:17.794Z,10.5
2023-02-07T16:56:31.774Z,18.5
2023-02-07T16:58:35.723Z,14.2
2023-02-07T17:00:39.730Z,15.6
2023-02-07T17:02:43.192Z,20.7
2023-02-07T17:04:46.845Z,13.1
2023-02-07T17:06:50.526Z,15.3
2023-02-07T17:08:54.335Z,15.7
2023-02-07T17:11:00.894Z,14.7
2023-02-07T17:13:04.690Z,15.7
2023-02-07T17:15:08.509Z,17
2023-02-07T17:17:12.256Z,18.8
2023-02-07T17:19:16.001Z,13.5
2023-02-07T17:21:19.701Z,17.7
2023-02-07T17:23:23.329Z,12.8
2023-02-07T17:25:30.056Z,16.7
2023-02-07T17:27:33.846Z,13.6
2023-02-07T17:29:37.602Z,10.4
2023-02-07T17:31:41.444Z,11.1
2023-02-07T17:35:48.955Z,18.2
2023-02-07T17:37:52.693Z,19.8
2023-02-07T17:39:59.409Z,24.3
2023-02-07T17:42:03.075Z,17.7
2023-02-07T17:46:36.568Z,25.1
2023-02-07T17:48:40.341Z,19.2
2023-02-07T17:52:50.714Z,17.6
2023-02-07T17:54:54.495Z,16.7
2023-02-07T17:56:58.159Z,16.1
2023-02-07T17:59:01.914Z,31.8
2023-02-07T18:01:05.791Z,20.6
2023-02-07T18:03:09.443Z,34.5
2023-02-07T18:05:13.241Z,45.4
2023-02-07T18:07:19.906Z,40.2
2023-02-07T18:11:27.464Z,49.5
2023-02-07T18:13:32.020Z,30.9
2023-02-07T18:15:35.824Z,32
2023-02-07T18:17:39.451Z,33.3
2023-02-07T18:21:49.887Z,37.9
2023-02-07T18:23:53.650Z,32.6
2023-02-07T18:25:57.284Z,36.9
2023-02-07T18:28:01.077Z,43.6
2023-02-07T18:30:04.784Z,53.8
2023-02-07T18:32:08.536Z,56.7
2023-02-07T18:34:12.312Z,46.8
2023-02-07T18:36:18.925Z,51.3
2023-02-07T18:41:29.622Z,43
2023-02-07T18:43:33.315Z,48.9
2023-02-07T18:45:36.936Z,43.7
2023-02-07T18:47:40.561Z,45.7
2023-02-07T18:49:47.109Z,41.8
2023-02-07T18:51:50.777Z,66
2023-02-07T18:53:54.392Z,64.5
2023-02-07T18:55:58.087Z,60.8
2023-02-07T18:58:01.785Z,63.9
2023-02-07T19:00:05.477Z,66.4
2023-02-07T19:02:09.051Z,40.2
2023-02-07T19:04:15.668Z,68.5
2023-02-07T19:06:19.330Z,57.5
2023-02-07T19:08:22.903Z,83.7
2023-02-07T19:10:26.596Z,107.7
2023-02-07T19:12:30.157Z,76.2
2023-02-07T19:14:33.866Z,61.4
2023-02-07T19:16:37.528Z,63.3
2023-02-07T19:18:44.165Z,81.2
2023-02-07T19:20:47.825Z,47.5
2023-02-07T19:22:51.390Z,55.6
2023-02-07T19:26:58.696Z,44.6
2023-02-07T19:29:02.378Z,74.7
2023-02-07T19:31:06.135Z,56.8
2023-02-07T19:33:12.564Z,45.6
2023-02-07T19:35:16.206Z,46.3
2023-02-07T19:37:21.237Z,64.1
2023-02-07T19:40:28.167Z,48.1
2023-02-07T19:42:31.811Z,48.8
2023-02-07T19:46:42.019Z,74.7
2023-02-07T19:48:45.653Z,66.7
2023-02-07T19:50:49.328Z,50.5
2023-02-07T19:52:52.953Z,69.7
2023-02-07T19:54:56.789Z,66.2
2023-02-07T19:57:00.199Z,65.6
2023-02-07T19:59:03.849Z,62.9
2023-02-07T20:01:10.394Z,62.8
2023-02-07T20:03:14.028Z,43.2
2023-02-07T20:05:17.613Z,50.2
2023-02-07T20:07:21.240Z,64.5
2023-02-07T20:09:24.913Z,52.1
2023-02-07T20:11:28.527Z,45.1
2023-02-07T20:13:32.168Z,36.8
2023-02-07T20:15:38.689Z,42.8
2023-02-07T20:17:42.318Z,53.9
2023-02-07T20:19:45.913Z,45.8
2023-02-07T20:25:56.807Z,33.9
2023-02-07T20:35:17.470Z,37.1
2023-02-07T20:37:21.073Z,40.4
2023-02-07T20:39:24.692Z,41.5
2023-02-07T20:41:28.303Z,35.3
2023-02-07T20:43:34.840Z,50
2023-02-07T20:45:38.433Z,59.9
2023-02-07T20:47:42.051Z,57.3
2023-02-07T20:49:45.675Z,49.9
2023-02-07T20:51:49.236Z,45.8
2023-02-07T20:53:52.837Z,38.7
2023-02-07T20:55:56.405Z,45.4
2023-02-07T20:58:02.964Z,61.4
2023-02-07T21:00:06.560Z,66
2023-02-07T21:02:10.224Z,54.6
2023-02-07T21:04:13.740Z,57.4
2023-02-07T21:06:17.313Z,56.3
2023-02-07T21:08:20.897Z,78.4
2023-02-07T21:10:24.497Z,54.7
2023-02-07T21:12:31.038Z,46.8
2023-02-07T21:14:34.632Z,61.7
2023-02-07T21:16:38.247Z,57
2023-02-07T21:18:41.823Z,64
2023-02-07T21:20:45.385Z,61.3
2023-02-07T21:22:49.077Z,75
2023-02-07T21:24:52.551Z,69.1
2023-02-07T21:26:59.073Z,59
2023-02-07T21:29:02.623Z,45.9
2023-02-07T21:31:06.294Z,62
2023-02-07T21:33:35.910Z,58.4
2023-02-07T21:35:39.520Z,61.8
2023-02-07T21:37:43.064Z,61.1
2023-02-07T21:39:49.614Z,69
2023-02-07T21:41:53.187Z,46.5
2023-02-07T21:46:00.414Z,63.1
2023-02-07T21:48:03.910Z,49.7
2023-02-07T21:50:07.534Z,56.4
2023-02-07T21:52:11.072Z,66.7
2023-02-07T21:54:17.625Z,87.9
2023-02-07T21:56:21.192Z,89.4
2023-02-07T21:58:24.797Z,74.9
2023-02-07T22:00:28.395Z,64.8
2023-02-07T22:02:32.094Z,94.1
2023-02-07T22:04:35.566Z,62.5
2023-02-07T22:06:39.138Z,52.7
2023-02-07T22:08:45.664Z,86.6
2023-02-07T22:10:49.262Z,93.5
2023-02-07T22:12:52.829Z,65.2
2023-02-07T22:14:56.420Z,44
2023-02-07T22:16:59.992Z,68.4
2023-02-07T22:19:03.599Z,55.1
2023-02-07T22:21:07.155Z,36
2023-02-07T22:23:13.664Z,46.5
2023-02-07T22:25:17.289Z,53.7
2023-02-07T22:30:27.802Z,58.3
2023-02-07T22:36:41.430Z,48
2023-02-07T22:38:45.034Z,41.5
2023-02-07T22:40:48.601Z,31.3
2023-02-07T22:42:52.179Z,34.8
2023-02-07T22:44:55.746Z,40.7
2023-02-07T22:46:59.352Z,46.8
2023-02-07T22:49:02.938Z,44.2
2023-02-07T22:57:20.164Z,33.8
2023-02-07T23:01:27.335Z,27.7
2023-02-07T23:03:30.931Z,31.6
2023-02-07T23:05:37.426Z,39.5
2023-02-07T23:07:40.973Z,33
2023-02-07T23:09:44.560Z,32
2023-02-07T23:11:48.131Z,46.7
2023-02-07T23:13:51.669Z,27.4
2023-02-07T23:17:58.816Z,55.2
2023-02-07T23:22:08.864Z,39.9
2023-02-07T23:24:12.440Z,48.4
2023-02-07T23:27:19.232Z,39.8
2023-02-07T23:29:22.793Z,41.1
2023-02-07T23:31:26.450Z,56.6
2023-02-07T23:33:32.792Z,67.5
2023-02-07T23:35:36.372Z,59
2023-02-07T23:37:39.909Z,52.1
2023-02-07T23:39:43.476Z,116.4
2023-02-07T23:41:47.013Z,50.5
2023-02-07T23:43:50.574Z,51
2023-02-07T23:45:54.188Z,47.9
2023-02-07T23:48:00.595Z,47.1
2023-02-07T23:50:04.188Z,49.4
2023-02-07T23:52:07.697Z,44.1
2023-02-07T23:54:11.230Z,51.8
2023-02-07T23:58:18.301Z,34.1
